Time;durP1;ratioP1;P1;durP2;ratioP2;P2;SDS_P1;SDS_P2;PMS_P1;PMS_P2;Temp;Humidity;BMP_temperature;BMP_pressure;BME280_temperature;BME280_humidity;BME280_pressure;Samples;Min_cycle;Max_cycle;Signal;HPM_P1;HPM_P2
2022/10/03 00:02:51;;;;;;;17.73;4.60;;;;;;;9.85;100.00;67862.44;4986296;28;20045;-79
2022/10/03 00:05:43;;;;;;;15.02;4.00;;;;;;;;;;4965009;28;20394;-79
2022/10/03 00:08:27;;;;;;;12.65;4.00;;;;;;;9.75;100.00;67851.09;4981105;28;20084;-79
2022/10/03 00:11:18;;;;;;;16.90;4.60;;;;;;;9.78;100.00;67855.09;4997838;28;20054;-79
2022/10/03 00:14:04;;;;;;;15.98;4.38;;;;;;;9.76;100.00;67852.25;4998780;28;20510;-79
2022/10/03 00:16:39;;;;;;;11.00;4.18;;;;;;;9.73;100.00;67848.84;4986860;28;20046;-78
2022/10/03 00:19:13;;;;;;;17.52;4.30;;;;;;;;;;4986114;28;20042;-78
2022/10/03 00:21:50;;;;;;;14.90;4.30;;;;;;;9.73;100.00;67848.84;4988784;28;20416;-79
2022/10/03 00:24:30;;;;;;;19.30;4.63;;;;;;;9.66;100.00;67842.03;4986101;28;20521;-78
2022/10/03 00:27:11;;;;;;;13.52;4.63;;;;;;;9.63;100.00;67843.94;4984417;28;20052;-78
2022/10/03 00:29:51;;;;;;;16.52;4.28;;;;;;;;;;4982674;28;20125;-78
2022/10/03 00:32:45;;;;;;;13.13;4.95;;;;;;;9.58;100.00;67832.38;4980272;28;20413;-78
2022/10/03 00:35:11;;;;;;;17.88;4.30;;;;;;;;;;4994953;28;20236;-78
2022/10/03 00:37:55;;;;;;;12.80;4.20;;;;;;;9.50;100.00;67829.22;4984366;28;20046;-78
2022/10/03 00:41:03;;;;;;;17.55;4.47;;;;;;;9.53;100.00;67832.06;4983241;28;20185;-79
2022/10/03 00:43:38;;;;;;;14.53;4.27;;;;;;;9.45;100.00;67818.22;4984791;28;20137;-78
2022/10/03 00:46:22;;;;;;;16.08;4.65;;;;;;;;;;4985593;28;20317;-78
2022/10/03 00:49:13;;;;;;;12.77;4.40;;;;;;;9.39;100.00;67809.34;4978011;28;20039;-78
2022/10/03 00:52:01;;;;;;;19.67;4.75;;;;;;;9.37;100.00;67809.72;4981962;28;20073;-78
2022/10/03 00:54:36;;;;;;;13.60;4.28;;;;;;;9.34;100.00;67811.06;4969850;28;20054;-78
2022/10/03 00:57:12;;;;;;;14.43;5.35;;;;;;;;;;4981503;28;20494;-78
2022/10/03 00:59:55;;;;;;;13.20;5.57;;;;;;;9.33;100.00;67805.19;4987243;28;20054;-78
2022/10/03 01:02:33;;;;;;;20.65;5.30;;;;;;;9.32;100.00;67808.78;4980326;28;20073;-78
2022/10/03 01:05:02;;;;;;;15.40;4.43;;;;;;;;;;4982296;28;20057;-78
2022/10/03 01:07:27;;;;;;;;;;;;;;;;;;4987428;28;20046;-78
2022/10/03 01:10:16;;;;;;;14.57;4.63;;;;;;;9.13;100.00;67787.84;4986344;28;19917;-78
2022/10/03 01:12:54;;;;;;;;;;;;;;;9.17;100.00;67787.03;4983195;28;20050;-78
2022/10/03 01:15:25;;;;;;;18.95;5.63;;;;;;;9.05;100.00;67774.00;4963592;28;20393;-78
2022/10/03 01:18:09;;;;;;;13.07;4.72;;;;;;;;;;4985912;28;20494;-78
2022/10/03 01:21:07;;;;;;;17.20;4.65;;;;;;;9.02;100.00;67775.94;4986946;28;20490;-78
2022/10/03 01:23:32;;;;;;;15.43;5.53;;;;;;;;;;4983404;28;20045;-78
2022/10/03 01:26:03;;;;;;;15.60;5.47;;;;;;;;;;4996871;28;20046;-78
2022/10/03 01:32:00;;;;;;;14.75;5.13;;;;;;;8.94;100.00;67761.53;4984463;28;20199;-78
2022/10/03 01:34:44;;;;;;;14.18;5.05;;;;;;;;;;4965245;28;20510;-78
2022/10/03 01:37:30;;;;;;;18.05;5.55;;;;;;;;;;4981641;28;20086;-78
2022/10/03 01:40:14;;;;;;;11.27;4.70;;;;;;;8.67;100.00;67736.84;4982120;28;20092;-78
2022/10/03 01:43:08;;;;;;;18.90;4.93;;;;;;;8.62;100.00;67726.41;4984480;28;20076;-78
2022/10/03 01:45:39;;;;;;;14.13;5.50;;;;;;;;;;4986022;28;20049;-78
2022/10/03 01:48:13;;;;;;;18.52;5.32;;;;;;;8.61;100.00;67725.28;4984477;28;20042;-78
2022/10/03 01:50:47;;;;;;;19.33;5.53;;;;;;;8.51;100.00;67719.25;4985571;28;20038;-78
2022/10/03 01:53:25;;;;;;;19.90;6.10;;;;;;;8.50;100.00;67718.72;4972811;28;20129;-78
2022/10/03 01:56:09;;;;;;;15.32;4.93;;;;;;;;;;4982698;28;20062;-78
2022/10/03 01:59:03;;;;;;;13.40;4.30;;;;;;;8.33;100.00;67700.00;4980081;28;20034;-78
2022/10/03 02:01:47;;;;;;;14.68;4.63;;;;;;;8.20;100.00;67679.38;4969790;28;20122;-78
2022/10/03 02:04:50;;;;;;;11.88;4.18;;;;;;;8.19;100.00;67678.81;4976100;28;20138;-78
2022/10/03 02:07:42;;;;;;;11.52;4.60;;;;;;;8.17;100.00;67681.88;4946164;28;20059;-78
2022/10/03 02:10:34;;;;;;;15.68;5.53;;;;;;;8.06;100.00;67669.97;4981781;28;20129;-78
2022/10/03 02:13:18;;;;;;;18.05;5.40;;;;;;;;;;4985093;28;20054;-78
2022/10/03 02:16:06;;;;;;;15.25;4.95;;;;;;;8.09;100.00;67672.81;4981991;28;20504;-78
2022/10/03 02:18:43;;;;;;;14.73;5.07;;;;;;;8.07;100.00;67670.53;4985550;28;20042;-78
2022/10/03 02:21:17;;;;;;;15.75;5.40;;;;;;;8.04;100.00;67667.72;4981278;28;20045;-78
2022/10/03 02:23:45;;;;;;;17.08;5.65;;;;;;;7.99;100.00;67656.75;4981046;28;20231;-78
2022/10/03 02:26:19;;;;;;;13.77;5.43;;;;;;;7.99;100.00;67661.47;4981574;28;20053;-78
2022/10/03 02:29:02;;;;;;;11.43;4.63;;;;;;;;;;4985148;28;20242;-78
2022/10/03 02:32:14;;;;;;;13.80;4.85;;;;;;;7.90;100.00;67652.41;4981740;28;20050;-78
2022/10/03 02:35:23;;;;;;;10.95;4.15;;;;;;;7.73;100.00;67632.63;4981454;28;20128;-77
2022/10/03 02:38:04;;;;;;;9.45;4.78;;;;;;;7.69;100.00;67631.88;4920235;28;20109;-78
2022/10/03 02:40:36;;;;;;;14.98;5.72;;;;;;;;;;5002598;22;20057;-78
2022/10/03 02:43:14;;;;;;;16.10;5.28;;;;;;;;;;4985845;28;20097;-76
2022/10/03 02:45:57;;;;;;;18.23;5.38;;;;;;;;;;4982939;28;20046;-79
2022/10/03 02:48:32;;;;;;;15.55;5.80;;;;;;;;;;4967272;28;20114;-79
2022/10/03 02:51:03;;;;;;;14.60;6.38;;;;;;;7.85;100.00;67646.78;4987310;28;20123;-79
2022/10/03 02:53:47;;;;;;;13.68;5.00;;;;;;;;;;4966887;28;20437;-78
2022/10/03 02:56:28;;;;;;;11.35;5.10;;;;;;;;;;4985895;28;20054;-76
2022/10/03 02:59:09;;;;;;;14.18;5.15;;;;;;;7.51;100.00;67608.84;4983934;28;20046;-78
2022/10/03 03:02:08;;;;;;;17.40;6.25;;;;;;;7.56;100.00;67614.50;4968394;28;20046;-77
2022/10/03 03:05:03;;;;;;;21.50;7.05;;;;;;;7.65;100.00;67624.13;4972230;28;20066;-78
2022/10/03 03:07:47;;;;;;;16.35;6.30;;;;;;;;;;4966890;28;20122;-78
2022/10/03 03:10:24;;;;;;;15.68;5.68;;;;;;;7.55;100.00;67612.81;4964942;28;20399;-78
2022/10/03 03:13:08;;;;;;;14.95;6.22;;;;;;;7.52;100.00;67609.41;4990308;28;20508;-78
2022/10/03 03:16:04;;;;;;;14.30;6.10;;;;;;;7.53;100.00;67611.09;4973999;28;20046;-77
2022/10/03 03:18:33;;;;;;;15.73;5.80;;;;;;;7.39;100.00;67595.84;4969441;28;20046;-77
2022/10/03 03:21:17;;;;;;;9.57;4.75;;;;;;;7.32;100.00;67587.91;4991777;28;20065;-77
2022/10/03 03:24:14;;;;;;;14.10;5.70;;;;;;;7.35;100.00;67590.72;4991318;28;20050;-79
2022/10/03 03:26:58;;;;;;;18.27;6.45;;;;;;;;;;4985124;28;20059;-78
2022/10/03 03:29:46;;;;;;;12.30;5.03;;;;;;;7.25;100.00;67580.00;4972197;28;20073;-75
2022/10/03 03:32:27;;;;;;;14.50;5.93;;;;;;;7.13;100.00;67566.41;4989233;28;20132;-78
2022/10/03 03:35:03;;;;;;;15.23;5.97;;;;;;;7.11;100.00;67564.16;4991620;28;20046;-79
2022/10/03 03:37:42;;;;;;;14.25;6.00;;;;;;;7.14;100.00;67567.53;4991321;28;20515;-79
2022/10/03 03:40:22;;;;;;;13.90;5.45;;;;;;;;;;4988816;28;20070;-78
2022/10/03 03:42:47;;;;;;;13.20;6.07;;;;;;;;;;4987940;28;20038;-79
2022/10/03 03:45:42;;;;;;;15.33;7.00;;;;;;;7.23;100.00;67578.28;4989679;28;20044;-79
2022/10/03 03:48:21;;;;;;;15.27;6.88;;;;;;;;;;4993289;28;20424;-79
2022/10/03 03:51:04;;;;;;;12.88;5.95;;;;;;;7.08;100.00;67556.03;4991530;28;20085;-79
2022/10/03 03:53:30;;;;;;;19.08;6.82;;;;;;;;;;4992136;28;20058;-78
2022/10/03 03:56:07;;;;;;;13.60;5.87;;;;;;;7.10;100.00;67568.28;4988856;28;20393;-77
2022/10/03 03:58:55;;;;;;;15.50;6.45;;;;;;;;;;4986117;28;20305;-79
2022/10/03 04:01:38;;;;;;;16.93;6.00;;;;;;;;;;4953447;28;20137;-79
2022/10/03 04:04:13;;;;;;;14.10;6.63;;;;;;;;;;4988706;28;20324;-76
2022/10/03 04:06:45;;;;;;;12.95;6.13;;;;;;;7.03;100.00;67550.38;4988244;28;20123;-78
2022/10/03 04:09:14;;;;;;;15.43;5.90;;;;;;;;;;4987229;28;20575;-78
2022/10/03 04:12:09;;;;;;;13.80;6.05;;;;;;;6.87;100.00;67537.53;4969148;28;20054;-76
2022/10/03 04:14:51;;;;;;;16.48;7.00;;;;;;;;;;4972356;28;20412;-76
2022/10/03 04:20:37;;;;;;;17.38;7.88;;;;;;;6.94;100.00;67546.03;4988369;28;20041;-77
2022/10/03 04:23:18;;;;;;;14.30;6.70;;;;;;;6.91;100.00;67545.28;4988104;28;20039;-76
2022/10/03 04:26:03;;;;;;;14.45;6.47;;;;;;;6.87;100.00;67537.53;4988995;28;20054;-78
2022/10/03 04:28:35;;;;;;;16.67;7.72;;;;;;;;;;4971658;28;20046;-76
2022/10/03 04:31:05;;;;;;;14.32;5.88;;;;;;;;;;4991131;28;20042;-79
2022/10/03 04:33:53;;;;;;;15.07;6.43;;;;;;;6.82;100.00;67531.88;4989430;28;20053;-78
2022/10/03 04:36:30;;;;;;;17.45;6.75;;;;;;;6.82;100.00;67532.47;4970337;28;20039;-76
2022/10/03 04:39:09;;;;;;;14.80;6.90;;;;;;;6.78;100.00;67527.94;4985648;28;20068;-77
2022/10/03 04:41:56;;;;;;;12.07;6.85;;;;;;;6.57;100.00;67504.75;4989551;28;20038;-78
2022/10/03 04:44:44;;;;;;;14.93;6.88;;;;;;;6.47;100.00;67499.31;4972474;28;20066;-78
2022/10/03 04:47:21;;;;;;;17.65;6.75;;;;;;;6.54;100.00;67501.34;4958789;28;20374;-75
2022/10/03 04:49:59;;;;;;;13.32;6.82;;;;;;;6.53;100.00;67494.94;4986913;28;20038;-79
2022/10/03 04:52:48;;;;;;;17.90;8.15;;;;;;;6.62;100.00;67510.41;4988153;28;20523;-79
2022/10/03 04:55:26;;;;;;;16.70;7.20;;;;;;;6.62;100.00;67509.81;4940390;28;20125;-78
2022/10/03 04:57:55;;;;;;;14.52;6.75;;;;;;;;;;4981628;28;20112;-74
2022/10/03 05:00:27;;;;;;;15.68;7.38;;;;;;;6.54;100.00;67501.34;4990228;28;20072;-78
2022/10/03 05:02:52;;;;;;;18.52;8.32;;;;;;;;;;4987714;28;20092;-77
2022/10/03 05:05:26;;;;;;;14.35;7.38;;;;;;;6.57;100.00;67504.19;4984654;28;20046;-79
2022/10/03 05:08:04;;;;;;;16.73;7.57;;;;;;;;;;4987608;28;20048;-75
2022/10/03 05:10:43;;;;;;;19.30;8.88;;;;;;;6.50;100.00;67497.41;4987763;28;20050;-79
2022/10/03 05:13:21;;;;;;;16.88;7.82;;;;;;;6.47;100.00;67496.66;4991495;28;20065;-79
2022/10/03 05:15:55;;;;;;;22.13;7.60;;;;;;;6.47;100.00;67494.00;4990061;28;20405;-78
2022/10/03 05:18:39;;;;;;;13.52;7.85;;;;;;;;;;4961394;28;20395;-77
2022/10/03 05:21:15;;;;;;;11.23;6.90;;;;;;;6.30;100.00;67474.78;4991049;28;20050;-76
2022/10/03 05:23:48;;;;;;;15.60;7.30;;;;;;;6.32;100.00;67477.59;4992785;28;20172;-79
2022/10/03 05:26:22;;;;;;;12.18;7.35;;;;;;;6.27;100.00;67474.03;4987568;28;20081;-77
2022/10/03 05:28:52;;;;;;;14.32;8.63;;;;;;;6.32;100.00;67479.69;4985020;28;20047;-79
2022/10/03 05:31:18;;;;;;;9.60;6.68;;;;;;;6.32;100.00;67477.03;4980344;28;20038;-77
2022/10/03 05:34:09;;;;;;;12.75;7.68;;;;;;;6.24;100.00;67468.56;4985978;28;20061;-78
2022/10/03 05:36:34;;;;;;;14.25;7.32;;;;;;;;;;4972584;28;20042;-78
2022/10/03 05:39:18;;;;;;;14.40;8.50;;;;;;;;;;4982817;28;20113;-77
2022/10/03 05:41:53;;;;;;;14.68;8.27;;;;;;;6.17;100.00;67460.09;4981856;28;20285;-79
2022/10/03 05:44:21;;;;;;;13.20;9.18;;;;;;;;;;4983636;28;20038;-79
2022/10/03 05:46:46;;;;;;;19.50;10.70;;;;;;;6.24;100.00;67462.69;4985929;28;20122;-78
2022/10/03 05:49:31;;;;;;;19.00;9.10;;;;;;;;;;4977387;28;20118;-77
2022/10/03 05:52:17;;;;;;;18.85;9.73;;;;;;;6.22;100.00;67468.38;4969579;28;20375;-76
2022/10/03 05:55:00;;;;;;;22.73;12.07;;;;;;;6.39;100.00;67487.59;4978734;28;20411;-78
2022/10/03 05:57:44;;;;;;;19.92;13.48;;;;;;;6.62;100.00;67509.81;4952418;28;20416;-76
2022/10/03 06:00:25;;;;;;;25.50;12.07;;;;;;;;;;4984316;28;20620;-79
2022/10/03 06:03:15;;;;;;;18.00;9.65;;;;;;;6.51;100.00;67498.53;4988285;28;20513;-77
2022/10/03 06:05:56;;;;;;;17.27;10.60;;;;;;;6.52;100.00;67493.81;4970295;28;20042;-79
2022/10/03 06:08:42;;;;;;;20.88;11.23;;;;;;;6.47;100.00;67494.00;4958623;28;20047;-77
2022/10/03 06:11:16;;;;;;;24.55;10.98;;;;;;;;;;4986284;28;20046;-76
2022/10/03 06:14:00;;;;;;;20.77;10.73;;;;;;;;;;4972835;28;20053;-77
2022/10/03 06:16:40;;;;;;;19.52;13.07;;;;;;;6.43;100.00;67484.19;4972552;28;20046;-77
2022/10/03 06:19:19;;;;;;;20.58;12.45;;;;;;;6.54;100.00;67496.06;4986861;28;20108;-78
2022/10/03 06:21:59;;;;;;;22.80;14.20;;;;;;;6.67;100.00;67515.50;4984422;28;20070;-77
2022/10/03 06:24:50;;;;;;;24.85;16.13;;;;;;;6.88;100.00;67539.25;4966853;28;20082;-78
2022/10/03 06:27:39;;;;;;;24.02;13.68;;;;;;;;;;4982082;28;20050;-79
2022/10/03 06:30:22;;;;;;;;;;;;;;;7.09;100.00;67561.88;4983227;28;20348;-77
2022/10/03 06:33:33;;;;;;;23.13;13.82;;;;;;;7.03;100.00;67549.81;4986278;28;19961;-79
2022/10/03 06:36:10;;;;;;;21.42;14.35;;;;;;;7.08;100.00;67561.31;4972069;28;20042;-77
2022/10/03 06:38:54;;;;;;;24.52;15.48;;;;;;;;;;4980217;28;20750;-77
2022/10/03 06:41:20;;;;;;;23.80;15.32;;;;;;;;;;4952777;28;20179;-76
2022/10/03 06:44:15;;;;;;;28.47;17.47;;;;;;;7.46;100.00;67598.44;4972370;28;20077;-78
2022/10/03 06:46:58;;;;;;;25.20;15.27;;;;;;;7.66;100.00;67625.25;4952579;28;20693;-78
2022/10/03 06:49:31;;;;;;;29.60;18.40;;;;;;;7.79;100.00;67639.97;4965808;28;20080;-78
2022/10/03 06:52:26;;;;;;;31.15;18.77;;;;;;;7.93;100.00;67649.97;4976159;28;20035;-78
2022/10/03 06:54:51;;;;;;;30.90;19.23;;;;;;;;;;4961640;28;20120;-77
2022/10/03 06:57:19;;;;;;;35.37;19.67;;;;;;;;;;4971955;28;20050;-77
2022/10/03 06:59:52;;;;;;;32.60;18.63;;;;;;;;;;4983416;28;20357;-79
2022/10/03 07:02:46;;;;;;;29.65;16.80;;;;;;;;;;4975764;28;20050;-79
2022/10/03 07:05:37;;;;;;;24.55;15.63;;;;;;;8.41;100.00;67708.50;4960602;28;20049;-75
2022/10/03 07:08:02;;;;;;;28.13;16.75;;;;;;;8.48;100.00;67711.13;4974450;28;20042;-77
2022/10/03 07:10:46;;;;;;;25.98;14.40;;;;;;;8.54;100.00;67717.34;4990511;28;20088;-78
2022/10/03 07:13:27;;;;;;;28.10;15.23;;;;;;;8.65;100.00;67735.13;4990255;28;20996;-79
2022/10/03 07:16:05;;;;;;;24.17;13.60;;;;;;;8.71;100.00;67736.63;4975904;28;20520;-78
2022/10/03 07:18:53;;;;;;;25.52;14.32;;;;;;;8.76;100.00;67747.59;4976640;28;20054;-76
2022/10/03 07:21:49;;;;;;;22.30;13.77;;;;;;;8.82;100.00;67759.69;4979021;28;20556;-76
2022/10/03 07:24:14;;;;;;;23.70;14.10;;;;;;;;;;4984092;28;20096;-77
2022/10/03 07:26:52;;;;;;;24.30;14.27;;;;;;;;;;4976028;28;20054;-79
2022/10/03 07:29:40;;;;;;;25.40;14.27;;;;;;;9.09;100.00;67778.56;4969515;28;20073;-79
2022/10/03 07:32:17;;;;;;;26.85;13.45;;;;;;;;;;4979581;28;20047;-79
2022/10/03 07:35:01;;;;;;;22.25;11.88;;;;;;;;;;4977853;28;20046;-77
2022/10/03 07:40:54;;;;;;;21.73;11.43;;;;;;;9.41;100.00;67811.03;4965210;28;20132;-79
2022/10/03 07:43:22;;;;;;;23.90;13.57;;;;;;;;;;4967538;28;20409;-77
2022/10/03 07:46:08;;;;;;;18.77;13.40;;;;;;;;;;4979657;28;20038;-76
2022/10/03 07:48:58;;;;;;;20.25;11.98;;;;;;;9.73;100.00;67849.41;4961548;28;20038;-80
2022/10/03 07:51:48;;;;;;;17.98;11.05;;;;;;;9.86;100.00;67868.88;4981132;28;20043;-78
2022/10/03 07:54:36;;;;;;;18.92;10.55;;;;;;;9.89;100.00;67872.28;4983500;28;20061;-77
2022/10/03 07:57:34;;;;;;;17.53;9.77;;;;;;;10.00;100.00;67878.88;4960578;28;20042;-78
2022/10/03 08:00:04;;;;;;;20.50;10.00;;;;;;;;;;4975211;28;20300;-75
2022/10/03 08:02:38;;;;;;;16.67;8.90;;;;;;;;;;4999005;28;20279;-76
2022/10/03 08:05:15;;;;;;;18.58;8.48;;;;;;;10.26;100.00;67913.13;4989866;28;20066;-78
2022/10/03 08:08:00;;;;;;;14.55;8.50;;;;;;;;;;4986200;28;20073;-77
2022/10/03 08:10:44;;;;;;;17.98;8.88;;;;;;;;;;4973735;28;20050;-78
2022/10/03 08:13:21;;;;;;;19.00;9.23;;;;;;;;;;4988884;28;20042;-80
2022/10/03 08:16:05;;;;;;;17.70;8.77;;;;;;;10.64;100.00;67949.81;4989551;28;20041;-76
2022/10/03 08:19:12;;;;;;;15.88;7.80;;;;;;;10.75;100.00;67968.19;4934048;28;20050;-79
2022/10/03 08:22:04;;;;;;;14.60;7.88;;;;;;;10.87;100.00;67975.91;4986217;28;20065;-75
2022/10/03 08:24:45;;;;;;;14.25;6.82;;;;;;;;;;4968266;28;20050;-78
2022/10/03 08:27:30;;;;;;;16.80;7.55;;;;;;;11.05;100.00;67996.34;4969660;28;20596;-77
2022/10/03 08:30:05;;;;;;;13.60;7.50;;;;;;;11.14;100.00;68005.44;4989557;28;20069;-78
2022/10/03 08:32:50;;;;;;;13.38;5.85;;;;;;;11.27;100.00;68020.19;4985519;28;20047;-77
2022/10/03 08:35:37;;;;;;;17.05;7.55;;;;;;;11.35;100.00;68029.28;4985842;28;20432;-76
2022/10/03 08:38:02;;;;;;;12.85;6.10;;;;;;;;;;4987281;28;20125;-78
2022/10/03 08:41:16;;;;;;;14.37;6.13;;;;;;;11.48;100.00;68044.03;4988954;28;20685;-76
2022/10/03 08:44:04;;;;;;;12.02;6.50;;;;;;;11.57;100.00;68053.69;4969443;28;20282;-76
2022/10/03 08:46:38;;;;;;;12.80;6.18;;;;;;;;;;4969282;28;20049;-77
2022/10/03 08:49:22;;;;;;;12.23;6.28;;;;;;;11.81;100.00;68079.81;4969055;28;20042;-74
2022/10/03 08:52:17;;;;;;;14.77;5.57;;;;;;;11.90;100.00;68087.38;4985664;28;20394;-74
2022/10/03 08:54:56;;;;;;;15.13;5.38;;;;;;;;;;4949019;28;20050;-77
2022/10/03 08:57:37;;;;;;;12.23;4.65;;;;;;;12.08;100.00;68110.50;4986719;28;20065;-74
2022/10/03 09:00:13;;;;;;;14.20;5.45;;;;;;;12.28;100.00;68132.66;4981657;28;20052;-77
2022/10/03 09:03:27;;;;;;;10.50;5.18;;;;;;;12.46;100.00;68151.97;4984226;28;20034;-76
2022/10/03 09:06:28;;;;;;;11.93;5.22;;;;;;;12.49;100.00;68153.28;4968896;28;20527;-77
2022/10/03 09:09:18;;;;;;;11.55;5.00;;;;;;;12.59;100.00;68166.75;4971276;28;20084;-76
2022/10/03 09:12:05;;;;;;;13.57;4.90;;;;;;;12.57;100.00;68165.06;4986237;28;20038;-76
2022/10/03 09:14:58;;;;;;;11.55;5.05;;;;;;;12.71;100.00;68180.38;4958067;28;20058;-76
2022/10/03 09:17:48;;;;;;;12.60;3.95;;;;;;;12.77;100.00;68184.53;4968304;28;20046;-77
2022/10/03 09:20:18;;;;;;;12.32;4.63;;;;;;;12.88;100.00;68199.72;4982982;28;20062;-75
2022/10/03 09:22:48;;;;;;;9.73;4.50;;;;;;;;;;4990812;28;20047;-77
2022/10/03 09:25:18;;;;;;;7.13;3.13;;;;;;;13.17;100.00;68231.56;4987066;28;20046;-78
2022/10/03 09:28:20;;;;;;;14.10;4.00;;;;;;;13.24;99.22;68239.53;4965140;28;20548;-76
2022/10/03 09:31:17;;;;;;;11.48;4.13;;;;;;;13.43;100.00;68260.56;4969650;28;20062;-76
2022/10/03 09:34:01;;;;;;;10.65;3.58;;;;;;;13.47;98.88;68261.91;4965052;28;20053;-76
2022/10/03 09:37:13;;;;;;;9.50;3.35;;;;;;;13.50;98.22;68265.88;4948883;28;20039;-77
2022/10/03 09:39:59;;;;;;;10.40;3.55;;;;;;;13.48;95.91;68263.59;4965823;28;20057;-78
2022/10/03 09:42:40;;;;;;;12.27;3.40;;;;;;;13.49;97.63;68264.16;4947539;28;20046;-78
2022/10/03 09:45:14;;;;;;;8.25;2.30;;;;;;;13.60;97.52;68278.78;4979234;28;20498;-77
2022/10/03 09:48:17;;;;;;;9.98;2.15;;;;;;;13.64;94.17;68283.34;4979825;28;20054;-77
2022/10/03 09:51:00;;;;;;;8.20;2.70;;;;;;;13.73;95.64;68299.50;4964560;28;20050;-76
2022/10/03 09:53:36;;;;;;;10.90;2.78;;;;;;;13.88;94.79;68310.63;4956767;28;20077;-77
2022/10/03 09:56:20;;;;;;;11.02;3.03;;;;;;;13.90;94.15;68309.69;4981544;28;20046;-78
2022/10/03 09:59:07;;;;;;;12.30;3.10;;;;;;;14.06;95.25;68329.97;4978160;28;20058;-76
2022/10/03 10:01:44;;;;;;;13.18;2.50;;;;;;;14.15;93.76;68338.09;4931939;28;20055;-76
2022/10/03 10:04:28;;;;;;;10.60;2.92;;;;;;;14.26;93.36;68349.50;4978329;28;20557;-77
2022/10/03 10:07:18;;;;;;;5.93;1.85;;;;;;;14.29;91.03;68352.91;4981334;28;20050;-77
2022/10/03 10:09:59;;;;;;;9.43;2.20;;;;;;;;;;4965753;28;20676;-77
2022/10/03 10:12:30;;;;;;;8.55;1.92;;;;;;;14.34;92.33;68361.28;4975909;28;20046;-77
2022/10/03 10:15:22;;;;;;;10.15;2.33;;;;;;;14.35;90.44;68359.72;4975661;28;20134;-75
2022/10/03 10:18:03;;;;;;;7.28;2.10;;;;;;;14.29;90.73;68355.59;4948481;28;20514;-76
2022/10/03 10:20:38;;;;;;;7.65;2.42;;;;;;;;;;4973613;28;20125;-77
2022/10/03 10:23:21;;;;;;;7.95;2.22;;;;;;;14.38;92.14;68363.16;4974536;28;20054;-77
2022/10/03 10:25:47;;;;;;;8.40;1.73;;;;;;;14.43;89.15;68372.09;4978817;28;20050;-76
2022/10/03 10:28:40;;;;;;;7.55;1.70;;;;;;;14.42;89.20;68367.72;4974924;28;20095;-78
2022/10/03 10:31:27;;;;;;;8.90;1.85;;;;;;;14.44;91.10;68372.66;4980899;28;20039;-77
2022/10/03 10:34:37;;;;;;;7.82;1.80;;;;;;;14.51;91.08;68377.94;4980770;28;20046;-77
2022/10/03 10:37:21;;;;;;;9.15;2.33;;;;;;;;;;4942247;28;20061;-78
2022/10/03 10:40:49;;;;;;;7.78;1.70;;;;;;;14.68;89.20;68398.88;4982423;28;20038;-78
2022/10/03 10:43:30;;;;;;;9.00;2.00;;;;;;;14.75;88.92;68404.16;4867221;29;20060;-76
2022/10/03 10:46:17;;;;;;;8.07;1.75;;;;;;;14.77;87.95;68409.13;4978904;28;20054;-77
2022/10/03 10:48:57;;;;;;;7.32;1.45;;;;;;;14.79;88.92;68411.41;4982500;28;20505;-78
2022/10/03 10:51:29;;;;;;;7.95;1.67;;;;;;;;;;4964132;28;20057;-78
2022/10/03 10:54:06;;;;;;;7.28;1.50;;;;;;;15.02;88.47;68437.00;4984628;28;20042;-75
2022/10/03 10:57:04;;;;;;;6.10;1.02;;;;;;;15.07;87.39;68440.00;4988023;28;20042;-76
2022/10/03 11:00:04;;;;;;;5.38;1.38;;;;;;;15.00;87.00;68435.31;4939318;28;20130;-77
2022/10/03 11:02:48;;;;;;;11.77;1.65;;;;;;;15.05;87.63;68437.75;4965867;28;20093;-77
2022/10/03 11:05:28;;;;;;;7.57;1.48;;;;;;;15.13;86.96;68449.53;4989057;28;20043;-79
2022/10/03 11:08:21;;;;;;;7.03;1.25;;;;;;;15.31;88.12;68469.47;4989035;28;20034;-78
2022/10/03 11:11:14;;;;;;;6.30;1.55;;;;;;;15.41;87.02;68475.50;4990650;28;20577;-77
2022/10/03 11:13:52;;;;;;;6.90;1.58;;;;;;;15.39;86.11;68478.56;4960003;28;20180;-79
2022/10/03 11:17:09;;;;;;;7.80;1.50;;;;;;;15.60;85.33;68498.69;4978429;28;20133;-79
2022/10/03 11:20:12;;;;;;;7.10;1.90;;;;;;;15.62;83.23;68500.94;4938443;28;20043;-77
2022/10/03 11:23:09;;;;;;;7.72;1.45;;;;;;;15.44;84.08;68483.69;4971594;28;20046;-76
2022/10/03 11:26:06;;;;;;;7.70;1.80;;;;;;;15.46;85.30;68483.31;4949388;28;20053;-77
2022/10/03 11:28:58;;;;;;;6.47;1.25;;;;;;;15.85;83.76;68523.94;4953255;28;20040;-76
2022/10/03 11:31:42;;;;;;;6.13;1.48;;;;;;;15.65;81.67;68504.38;4963923;28;20046;-77
2022/10/03 11:34:44;;;;;;;4.90;1.25;;;;;;;15.64;85.12;68500.56;4966637;28;20058;-77
2022/10/03 11:37:23;;;;;;;8.68;1.52;;;;;;;;;;4983386;28;20054;-77
2022/10/03 11:39:58;;;;;;;9.23;1.08;;;;;;;15.71;84.74;68511.25;4986208;28;20138;-76
2022/10/03 11:42:54;;;;;;;7.95;1.60;;;;;;;15.77;81.72;68515.41;4986508;28;20046;-76
2022/10/03 11:45:41;;;;;;;7.93;1.60;;;;;;;15.65;80.74;68502.28;4983220;28;20046;-76
2022/10/03 11:48:38;;;;;;;4.80;1.30;;;;;;;15.66;83.45;68503.41;4985011;28;20493;-78
2022/10/03 11:51:08;;;;;;;8.98;1.45;;;;;;;15.53;81.25;68494.53;4977162;28;20136;-75
2022/10/03 11:53:40;;;;;;;8.88;1.88;;;;;;;15.64;82.67;68501.13;4983633;28;20748;-77
2022/10/03 11:56:15;;;;;;;5.35;1.10;;;;;;;15.78;84.03;68517.09;4967649;28;20067;-78
2022/10/03 11:58:56;;;;;;;4.32;1.27;;;;;;;15.84;81.45;68525.47;4986970;28;20034;-79
2022/10/03 12:01:30;;;;;;;5.10;1.02;;;;;;;16.04;82.17;68550.38;4984115;28;20062;-75
2022/10/03 12:04:15;;;;;;;8.10;1.80;;;;;;;16.11;80.75;68552.97;4984507;28;20074;-78
2022/10/03 12:10:29;;;;;;;3.55;1.13;;;;;;;16.03;80.55;68549.81;4971726;28;20096;-78
2022/10/03 12:12:55;;;;;;;6.63;1.25;;;;;;;16.01;81.94;68547.53;4984990;28;20564;-77
2022/10/03 12:15:42;;;;;;;7.22;1.23;;;;;;;16.12;80.95;68560.06;4984274;28;20252;-77
2022/10/03 12:18:41;;;;;;;6.05;1.17;;;;;;;16.25;78.82;68568.94;4981686;28;20073;-76
2022/10/03 12:21:15;;;;;;;7.97;1.27;;;;;;;16.53;80.63;68602.97;4980629;28;20050;-77
2022/10/03 12:24:35;;;;;;;7.68;1.50;;;;;;;16.72;78.64;68620.81;4983712;28;20042;-77
2022/10/03 12:27:12;;;;;;;5.93;1.20;;;;;;;16.85;78.41;68641.03;4883138;29;20052;-77
2022/10/03 12:29:44;;;;;;;4.05;0.77;;;;;;;16.90;78.24;68641.94;4969052;28;20141;-76
2022/10/03 12:32:13;;;;;;;6.78;1.50;;;;;;;16.83;76.49;68636.66;4983381;28;20155;-77
2022/10/03 12:35:07;;;;;;;8.97;1.40;;;;;;;16.73;76.43;68621.97;4985776;28;20065;-77
2022/10/03 12:38:10;;;;;;;7.65;1.48;;;;;;;16.78;79.42;68628.25;4976815;28;20134;-79
2022/10/03 12:40:42;;;;;;;5.95;1.15;;;;;;;16.69;78.42;68620.66;4936651;28;20053;-78
2022/10/03 12:43:33;;;;;;;6.57;1.40;;;;;;;16.66;77.90;68620.50;4985424;28;20049;-79
2022/10/03 12:46:29;;;;;;;6.28;1.42;;;;;;;16.52;77.89;68601.28;4969495;28;21359;-77
2022/10/03 12:49:24;;;;;;;7.13;1.42;;;;;;;16.58;76.37;68611.38;4983175;28;20060;-77
2022/10/03 12:51:58;;;;;;;5.15;1.35;;;;;;;16.44;77.72;68593.28;4897076;28;20893;-78
2022/10/03 12:54:37;;;;;;;7.72;1.30;;;;;;;16.35;77.34;68579.78;4983230;28;20050;-78
2022/10/03 12:57:27;;;;;;;5.60;1.13;;;;;;;16.39;77.84;68587.03;4969404;28;20426;-79
2022/10/03 13:00:11;;;;;;;5.18;1.30;;;;;;;16.49;77.88;68600.56;4986948;28;20475;-78
2022/10/03 13:02:53;;;;;;;6.35;1.35;;;;;;;16.46;77.69;68595.56;4973397;28;20100;-78
2022/10/03 13:05:21;;;;;;;6.05;1.50;;;;;;;;;;4987587;28;20454;-78
2022/10/03 13:08:01;;;;;;;7.10;1.33;;;;;;;16.44;79.22;68590.03;4986788;28;20057;-79
2022/10/03 13:10:46;;;;;;;5.00;1.10;;;;;;;16.42;77.92;68593.69;4982513;28;20141;-77
2022/10/03 13:13:21;;;;;;;6.15;1.60;;;;;;;16.38;78.27;68589.13;4984162;28;20093;-78
2022/10/03 13:16:08;;;;;;;7.55;1.77;;;;;;;16.39;79.52;68587.59;4988216;28;20046;-76
2022/10/03 13:18:59;;;;;;;5.53;1.40;;;;;;;16.35;79.49;68579.78;4972510;28;20062;-78
2022/10/03 13:21:43;;;;;;;6.15;1.45;;;;;;;16.35;79.54;68579.78;4973378;28;20050;-77
2022/10/03 13:24:33;;;;;;;6.28;1.40;;;;;;;16.30;78.89;68580.00;4985398;28;20034;-77
2022/10/03 13:27:01;;;;;;;5.97;1.10;;;;;;;16.23;79.50;68569.38;4986247;28;20073;-77
2022/10/03 13:29:31;;;;;;;7.25;1.52;;;;;;;16.22;77.50;68568.22;4984813;28;20705;-77
2022/10/03 13:32:09;;;;;;;4.78;1.63;;;;;;;16.17;77.43;68563.09;4986344;28;20049;-76
2022/10/03 13:34:46;;;;;;;4.30;1.10;;;;;;;16.20;78.88;68563.81;4950798;28;20492;-76
2022/10/03 13:37:21;;;;;;;6.35;1.10;;;;;;;16.22;78.49;68570.91;4985861;28;20035;-76